Flight Track Log - Related Links

Times and Time Zones

All times are in EDT time to prevent confusion due to time zone crossing. See the SWA22 flight status page for this flight to view local times or setup timezone preferences in your user account.

Time Position Orientation Groundspeed Altitude Reporting Facility
EDT Latitude Longitude Course Direction KTS MPH feet Rate Location/Type
Wed 02:19:04 PM 29.6306 -95.2939 282° West 153 176 1,200  Level Houston Center
Wed 02:20:06 PM 29.5917 -95.3322 221° Southwest 194 223 3,800 1,839 Climbing Houston Center
Wed 02:21:08 PM 29.5456 -95.3694 215° Southwest 202 232 5,000 1,856 Climbing Houston Center
Wed 02:21:43 PM 29.5111 -95.4003 218° Southwest 214 246 6,800 2,516 Climbing Houston Center
Wed 02:22:10 PM 29.5106 -95.4192 268° West 222 255 7,600 2,656 Climbing Houston Center
Wed 02:22:44 PM 29.5467 -95.4681 310° West 277 319 9,500 2,806 Climbing Houston Center
Wed 02:23:00 PM 30.0052 -95.6784 282° West  Level FlightAware Approximate
Wed 02:23:12 PM 29.5694 -95.4989 310° West 273 314 10,500  Level Houston Center
Wed 02:24:00 PM 30.0260 -95.7927 282° West  Level FlightAware Approximate
Wed 02:24:14 PM 29.6272 -95.5736 312° West 305 351 12,500  Level Houston Center
Wed 02:25:16 PM 29.6953 -95.6611 312° West 358 412 14,000 2,032 Climbing Houston Center
Wed 02:26:18 PM 29.7672 -95.7567 311° West 387 445 16,700 2,565 Climbing Houston Center
Wed 02:27:20 PM 29.8397 -95.8508 312° West 394 453 19,300 2,081 Climbing Houston Center
Wed 02:28:22 PM 29.8781 -95.9644 291° West 385 443 21,000 1,984 Climbing Houston Center
Wed 02:29:24 PM 29.9100 -96.1022 285° West 396 456 23,400 1,887 Climbing Houston Center
Wed 02:30:26 PM 29.9375 -96.2239 285° West 395 455 24,900 1,536 Climbing Houston Center
Wed 02:31:29 PM 29.9672 -96.3519 285° West 411 473 26,600 1,728 Climbing Houston Center
Wed 02:32:31 PM 30.0008 -96.5025 284° West 409 471 28,500 2,032 Climbing Houston Center
Wed 02:33:33 PM 30.0292 -96.6275 285° West 405 466 30,800 1,984 Climbing Houston Center
Wed 02:34:35 PM 30.0550 -96.7422 285° West 379 436 32,600 1,500 Climbing Houston Center
Wed 02:35:37 PM 30.0814 -96.8544 285° West 366 421 33,900 677 Climbing Houston Center
Wed 02:36:39 PM 30.1103 -96.9844 284° West 368 423 34,000 48 Climbing Houston Center
Wed 02:37:42 PM 30.1356 -97.1003 284° West 367 422 34,000  Level Houston Center
Wed 02:38:44 PM 30.1600 -97.2150 284° West 366 421 34,000  Level Houston Center
Wed 02:39:46 PM 30.1853 -97.3283 284° West 360 414 34,000  Level Houston Center
Wed 02:40:48 PM 30.2094 -97.4425 284° West 361 415 34,000  Level Houston Center
Wed 02:41:50 PM 30.2336 -97.5531 284° West 353 406 34,000  Level Houston Center
Wed 02:42:52 PM 30.2625 -97.6847 284° West 355 409 34,000  Level Houston Center
Wed 02:43:54 PM 30.2869 -97.7961 284° West 354 407 34,000  Level Houston Center
Wed 02:44:57 PM 30.3106 -97.9078 284° West 349 402 34,000  Level Houston Center
Wed 02:45:59 PM 30.3344 -98.0167 284° West 349 402 34,000  Level Houston Center
Wed 02:47:01 PM 30.3597 -98.1283 285° West 354 407 34,000  Level Houston Center
Wed 02:48:03 PM 30.4403 -98.2214 315° West 406 467 34,000  Level Houston Center
Wed 02:49:05 PM 30.5517 -98.2750 337° Northwest 452 520 34,000  Level Houston Center
Wed 02:50:07 PM 30.6903 -98.2597 North 492 566 34,000 -144 Level Houston Center
Wed 02:51:10 PM 30.8522 -98.2444 North 494 568 33,700 -672 Descending Houston Center
Wed 02:52:12 PM 30.9883 -98.2264 North 488 562 32,600 -1,065 Descending Houston Center
Wed 02:53:14 PM 31.1186 -98.1614 23° Northeast 499 574 31,500 -1,063 Descending Houston Center
Wed 02:53:31 PM 31.1611 -98.1367 26° Northeast 487 560 31,200 -1,923 Descending Fort Worth Center
Wed 02:54:32 PM 31.2867 -98.0647 26° Northeast 494 568 29,000 -2,231 Descending Fort Worth Center
Wed 02:55:32 PM 31.3978 -98.0022 26° Northeast 499 574 26,700 -1,815 Descending Fort Worth Center
Wed 02:56:31 PM 31.5192 -97.9325 26° Northeast 483 556 25,400 -1,261 Descending Fort Worth Center
Wed 02:57:31 PM 31.6300 -97.8672 27° Northeast 458 527 24,200 -1,650 Descending Fort Worth Center
Wed 02:58:31 PM 31.7408 -97.8017 27° Northeast 440 506 22,100 -2,100 Descending Fort Worth Center
Wed 02:59:31 PM 31.8581 -97.7361 25° Northeast 430 495 20,000 -2,050 Descending Fort Worth Center
Wed 03:00:31 PM 31.9647 -97.6731 27° Northeast 425 489 18,000 -1,983 Descending Fort Worth Center
Wed 03:01:32 PM 32.0544 -97.6192 27° Northeast 410 472 16,000 -2,100 Descending Fort Worth Center
Wed 03:02:31 PM 32.1631 -97.5558 26° Northeast 403 464 13,800 -1,966 Descending Fort Worth Center
Wed 03:03:31 PM 32.2614 -97.4969 27° Northeast 398 458 12,100 -1,300 Descending Fort Worth Center
Wed 03:04:31 PM 32.3447 -97.4258 36° Northeast 370 426 11,200 -1,200 Descending Fort Worth Center
Wed 03:05:31 PM 32.3886 -97.3372 60° Northeast 320 368 9,700 -1,488 Descending Fort Worth Center
Wed 03:06:32 PM 32.3969 -97.2364 84° East 301 346 8,200 -1,350 Descending Fort Worth Center
Wed 03:07:31 PM 32.3906 -97.1378 94° East 296 341 7,000 -1,261 Descending Fort Worth Center
Wed 03:08:31 PM 32.3881 -97.0419 92° East 294 338 5,700 -1,289 Descending Fort Worth Center
Wed 03:09:32 PM 32.4233 -96.9656 61° Northeast 266 306 4,400 -850 Descending Fort Worth Center
Wed 03:10:31 PM 32.4606 -96.8864 61° Northeast 267 307 4,000 -202 Descending Fort Worth Center
Wed 03:11:31 PM 32.4958 -96.8150 60° Northeast 263 303 4,000  Level Fort Worth Center
Wed 03:12:31 PM 32.5269 -96.7481 61° Northeast 241 277 4,000  Level Fort Worth Center
Wed 03:13:32 PM 32.5642 -96.6986 48° Northeast 222 255 4,000 -350 Level Fort Worth Center
Wed 03:14:31 PM 32.6183 -96.6611 30° Northeast 205 236 3,300 -500 Descending Fort Worth Center
Wed 03:15:32 PM 32.6581 -96.6731 346° North 171 197 3,000 -198 Descending Fort Worth Center
Wed 03:16:32 PM 32.7019 -96.6925 340° North 152 175 2,900 -343 Descending Fort Worth Center
Wed 03:17:52 PM 32.7500 -96.7333 324° Northwest 161 185 2,200 -313 Descending Dallas / Fort Worth TRACON
Wed 03:18:46 PM 32.7667 -96.7667 301° West 157 181 2,200 -316 Level Dallas / Fort Worth TRACON
Wed 03:19:46 PM 32.8000 -96.8000 320° Northwest 134 154 1,600 -600 Descending Dallas / Fort Worth TRACON

Login

Don't have an account? Register now (free) for customized features, flight alerts, and more!